createdAt,value
2022-08-31T00:01:30.973Z,7.60
2022-08-31T00:04:03.426Z,8.40
2022-08-31T00:06:32.707Z,7.53
2022-08-31T00:09:00.871Z,7.57
2022-08-31T00:11:30.791Z,7.93
2022-08-31T00:14:00.353Z,8.07
2022-08-31T00:16:30.805Z,8.20
2022-08-31T00:19:00.403Z,8.10
2022-08-31T00:21:28.837Z,8.10
2022-08-31T00:23:57.433Z,7.50
2022-08-31T00:26:25.944Z,7.70
2022-08-31T00:28:54.225Z,7.70
2022-08-31T00:31:22.386Z,7.70
2022-08-31T00:33:52.579Z,7.77
2022-08-31T00:36:24.241Z,7.90
2022-08-31T00:38:52.249Z,8.33
2022-08-31T00:41:21.816Z,8.23
2022-08-31T00:43:52.095Z,7.90
2022-08-31T00:46:22.217Z,7.60
2022-08-31T00:48:58.844Z,8.07
2022-08-31T00:51:29.528Z,7.13
2022-08-31T00:53:58.301Z,7.70
2022-08-31T00:56:27.788Z,8.00
2022-08-31T00:58:56.045Z,8.17
2022-08-31T01:01:24.661Z,7.50
2022-08-31T01:03:52.740Z,8.37
2022-08-31T01:06:21.865Z,7.50
2022-08-31T01:08:52.060Z,7.80
2022-08-31T01:11:22.066Z,8.13
2022-08-31T01:13:50.111Z,7.80
2022-08-31T01:16:25.270Z,8.40
2022-08-31T01:18:55.041Z,8.37
2022-08-31T01:21:29.149Z,7.30
2022-08-31T01:24:01.393Z,8.30
2022-08-31T01:26:32.130Z,7.60
2022-08-31T01:29:03.657Z,6.80
2022-08-31T01:31:35.819Z,8.20
2022-08-31T01:34:05.354Z,7.90
2022-08-31T01:36:35.334Z,7.70
2022-08-31T01:39:05.256Z,7.03
2022-08-31T01:41:33.345Z,7.10
2022-08-31T01:44:01.398Z,7.33
2022-08-31T01:46:29.425Z,8.30
2022-08-31T01:48:57.335Z,8.27
2022-08-31T01:51:25.332Z,7.50
2022-08-31T01:53:54.689Z,8.33
2022-08-31T01:56:26.298Z,7.43
2022-08-31T01:58:54.628Z,7.93
2022-08-31T02:01:28.090Z,7.47
2022-08-31T02:04:08.039Z,7.70
2022-08-31T02:06:37.261Z,8.20
2022-08-31T02:09:07.176Z,7.47
2022-08-31T02:11:36.905Z,7.90
2022-08-31T02:14:06.087Z,8.00
2022-08-31T02:16:34.135Z,8.40
2022-08-31T02:19:02.127Z,7.67
2022-08-31T02:21:30.141Z,7.57
2022-08-31T02:23:58.045Z,8.30
2022-08-31T02:26:26.388Z,8.60
2022-08-31T02:28:55.654Z,8.50
2022-08-31T02:31:23.621Z,7.80
2022-08-31T02:33:51.632Z,7.63
2022-08-31T02:36:19.539Z,8.17
2022-08-31T02:38:47.773Z,7.97
2022-08-31T02:41:15.985Z,8.70
2022-08-31T02:43:43.945Z,8.20
2022-08-31T02:46:13.300Z,7.70
2022-08-31T02:48:41.385Z,7.30
2022-08-31T02:51:11.568Z,7.73
2022-08-31T02:53:40.379Z,7.60
2022-08-31T02:56:09.006Z,7.97
2022-08-31T02:58:38.005Z,7.10
2022-08-31T03:01:05.991Z,8.20
2022-08-31T03:03:36.033Z,9.00
2022-08-31T03:06:04.521Z,7.27
2022-08-31T03:08:32.721Z,7.50
2022-08-31T03:11:01.329Z,7.43
2022-08-31T03:13:29.903Z,7.90
2022-08-31T03:15:57.957Z,8.00
2022-08-31T03:18:25.889Z,8.10
2022-08-31T03:20:55.161Z,7.73
2022-08-31T03:23:23.255Z,8.13
2022-08-31T03:25:51.218Z,8.20
2022-08-31T03:28:19.197Z,7.60
2022-08-31T03:30:47.134Z,8.10
2022-08-31T03:33:15.164Z,8.30
2022-08-31T03:35:44.151Z,8.20
2022-08-31T03:38:15.853Z,8.30
2022-08-31T03:40:44.819Z,8.57
2022-08-31T03:43:13.664Z,8.80
2022-08-31T03:45:43.119Z,8.27
2022-08-31T03:48:13.115Z,9.03
2022-08-31T03:50:42.234Z,8.40
2022-08-31T03:53:12.538Z,8.80
2022-08-31T03:55:43.456Z,8.27
2022-08-31T03:58:11.787Z,8.60
2022-08-31T04:00:40.039Z,9.70
2022-08-31T04:03:08.030Z,7.90
2022-08-31T04:05:38.249Z,8.57
2022-08-31T04:08:06.201Z,9.07
2022-08-31T04:10:34.127Z,9.20
2022-08-31T04:13:03.391Z,8.73
2022-08-31T04:15:31.278Z,9.20
2022-08-31T04:17:59.239Z,8.40
2022-08-31T04:20:29.769Z,7.90
2022-08-31T04:22:58.126Z,8.80
2022-08-31T04:25:26.063Z,8.60
2022-08-31T04:27:54.415Z,8.87
2022-08-31T04:30:24.759Z,10.10
2022-08-31T04:32:54.815Z,9.90
2022-08-31T04:35:22.748Z,9.60
2022-08-31T04:37:50.626Z,9.70
2022-08-31T04:40:20.222Z,8.80
2022-08-31T04:42:53.319Z,8.33
2022-08-31T04:45:21.290Z,8.30
2022-08-31T04:47:50.539Z,8.80
2022-08-31T04:50:18.762Z,9.20
2022-08-31T04:53:03.158Z,10.10
2022-08-31T04:55:32.280Z,9.03
2022-08-31T04:58:00.305Z,10.23
2022-08-31T05:00:28.256Z,8.43
2022-08-31T05:02:57.585Z,9.53
2022-08-31T05:05:25.572Z,9.90
2022-08-31T05:07:53.792Z,10.20
2022-08-31T05:10:23.250Z,10.50
2022-08-31T05:12:52.064Z,10.60
2022-08-31T05:15:19.995Z,9.87
2022-08-31T05:17:48.002Z,9.40
2022-08-31T05:20:17.384Z,9.63
2022-08-31T05:22:45.334Z,9.57
2022-08-31T05:25:13.279Z,9.27
2022-08-31T05:27:42.012Z,8.47
2022-08-31T05:30:11.246Z,8.97
2022-08-31T05:32:39.290Z,9.30
2022-08-31T05:35:08.294Z,9.77
2022-08-31T05:37:37.599Z,9.97
2022-08-31T05:40:06.563Z,9.50
2022-08-31T05:42:34.612Z,8.80
2022-08-31T05:45:02.873Z,9.50
2022-08-31T05:47:30.802Z,8.90
2022-08-31T05:49:58.768Z,9.50
2022-08-31T05:52:26.696Z,10.47
2022-08-31T05:54:56.136Z,10.00
2022-08-31T05:57:26.658Z,11.30
2022-08-31T05:59:54.938Z,11.27
2022-08-31T06:02:23.022Z,10.30
2022-08-31T06:04:57.288Z,9.87
2022-08-31T06:07:25.426Z,10.50
2022-08-31T06:09:55.318Z,10.10
2022-08-31T06:12:25.676Z,10.50
2022-08-31T06:14:54.290Z,10.70
2022-08-31T06:17:24.181Z,10.20
2022-08-31T06:19:52.227Z,11.27
2022-08-31T06:22:20.175Z,9.20
2022-08-31T06:24:48.285Z,8.23
2022-08-31T06:27:17.563Z,9.27
2022-08-31T06:29:45.549Z,8.97
2022-08-31T06:32:15.663Z,9.50
2022-08-31T06:34:43.976Z,10.53
2022-08-31T06:37:18.413Z,11.53
2022-08-31T06:39:47.629Z,12.03
2022-08-31T06:42:17.385Z,11.30
2022-08-31T06:44:45.245Z,12.30
2022-08-31T06:47:13.289Z,12.27
2022-08-31T06:49:41.188Z,11.10
2022-08-31T06:52:09.146Z,10.70
2022-08-31T06:54:37.177Z,11.47
2022-08-31T06:57:05.222Z,10.77
2022-08-31T06:59:34.550Z,10.93
2022-08-31T07:02:03.174Z,12.00
2022-08-31T07:04:33.615Z,12.00
2022-08-31T07:07:01.765Z,11.93
2022-08-31T07:09:29.819Z,11.80
2022-08-31T07:11:57.718Z,12.10
2022-08-31T07:14:27.783Z,13.13
2022-08-31T07:16:59.388Z,11.07
2022-08-31T07:19:27.759Z,12.67
2022-08-31T07:21:57.797Z,12.90
2022-08-31T07:24:28.580Z,13.50
2022-08-31T07:26:58.490Z,11.37
2022-08-31T07:29:30.244Z,12.80
2022-08-31T07:32:00.180Z,11.60
2022-08-31T07:34:30.270Z,12.73
2022-08-31T07:37:18.328Z,12.23
2022-08-31T07:40:07.590Z,11.37
2022-08-31T07:42:38.624Z,12.07
2022-08-31T07:45:12.086Z,12.40
2022-08-31T07:47:45.180Z,13.03
2022-08-31T07:50:13.423Z,11.93
2022-08-31T07:52:47.191Z,12.90
2022-08-31T07:55:17.738Z,11.60
2022-08-31T07:57:46.021Z,11.30
2022-08-31T08:00:18.009Z,11.50
2022-08-31T08:02:53.112Z,11.50
2022-08-31T08:05:26.945Z,12.83
2022-08-31T08:08:03.677Z,11.70
2022-08-31T08:10:33.518Z,12.10
2022-08-31T08:13:05.067Z,11.77
2022-08-31T08:15:35.670Z,11.77
2022-08-31T08:18:05.577Z,11.33
2022-08-31T08:20:38.056Z,11.20
2022-08-31T08:23:11.462Z,12.07
2022-08-31T08:25:43.486Z,11.37
2022-08-31T08:28:38.283Z,10.90
2022-08-31T08:31:06.205Z,11.43
2022-08-31T08:33:36.785Z,11.17
2022-08-31T08:36:08.576Z,12.27
2022-08-31T08:38:40.048Z,11.17
2022-08-31T08:41:16.760Z,11.40
2022-08-31T08:43:52.841Z,11.27
2022-08-31T08:46:37.096Z,11.20
2022-08-31T08:49:15.660Z,11.27
2022-08-31T08:51:44.656Z,11.30
2022-08-31T08:54:16.312Z,11.13
2022-08-31T08:56:48.885Z,14.73
2022-08-31T08:59:19.856Z,15.27
2022-08-31T09:01:51.098Z,17.73
2022-08-31T09:04:42.957Z,13.20
2022-08-31T09:07:30.662Z,12.50
2022-08-31T09:10:06.305Z,11.73
2022-08-31T09:12:46.941Z,12.00
2022-08-31T09:15:37.203Z,11.37
2022-08-31T09:18:17.574Z,11.50
2022-08-31T09:21:02.877Z,10.00
2022-08-31T09:23:34.814Z,11.20
2022-08-31T09:26:08.184Z,10.30
2022-08-31T09:28:48.283Z,11.20
2022-08-31T09:31:38.657Z,10.50
2022-08-31T09:34:14.192Z,11.50
2022-08-31T09:36:43.469Z,12.13
2022-08-31T09:39:24.863Z,10.93
2022-08-31T09:42:00.858Z,10.80
2022-08-31T09:44:34.302Z,10.20
2022-08-31T09:47:06.268Z,10.73
2022-08-31T09:49:37.626Z,11.30
2022-08-31T09:52:21.174Z,11.40
2022-08-31T09:55:14.172Z,11.50
2022-08-31T09:57:55.093Z,11.87
2022-08-31T10:00:32.556Z,12.63
2022-08-31T10:03:08.887Z,11.17
2022-08-31T10:05:41.731Z,11.53
2022-08-31T10:08:28.794Z,11.80
2022-08-31T10:11:10.345Z,10.47
2022-08-31T10:13:41.114Z,10.20
2022-08-31T10:16:17.056Z,11.30
2022-08-31T10:18:56.721Z,11.83
2022-08-31T10:21:35.219Z,11.80
2022-08-31T10:24:20.449Z,12.70
2022-08-31T10:26:53.374Z,12.27
2022-08-31T10:29:32.235Z,11.97
2022-08-31T10:32:03.619Z,11.63
2022-08-31T10:34:52.478Z,12.60
2022-08-31T10:37:25.852Z,12.00
2022-08-31T10:39:58.129Z,12.30
2022-08-31T10:42:32.116Z,12.63
2022-08-31T10:45:09.186Z,12.53
2022-08-31T10:47:46.932Z,13.10
2022-08-31T10:50:20.174Z,12.10
2022-08-31T10:53:02.676Z,13.33
2022-08-31T10:55:39.350Z,12.47
2022-08-31T10:58:17.800Z,10.97
2022-08-31T11:00:52.964Z,12.90
2022-08-31T11:03:38.679Z,12.10
2022-08-31T11:06:14.033Z,12.03
2022-08-31T11:08:49.968Z,12.80
2022-08-31T11:11:28.206Z,13.33
2022-08-31T11:14:29.226Z,12.83
2022-08-31T11:17:19.095Z,11.87
2022-08-31T11:20:19.830Z,12.20
2022-08-31T11:23:16.385Z,13.10
2022-08-31T11:26:15.274Z,11.80
2022-08-31T11:28:49.711Z,13.00
2022-08-31T11:31:24.472Z,10.70
2022-08-31T11:34:15.168Z,10.80
2022-08-31T11:36:50.503Z,10.73
2022-08-31T11:39:40.325Z,11.40
2022-08-31T11:42:53.307Z,11.80
2022-08-31T11:45:35.763Z,10.80
2022-08-31T11:48:05.534Z,9.87
2022-08-31T11:51:03.143Z,9.70
2022-08-31T11:53:36.972Z,9.20
2022-08-31T11:56:06.509Z,9.23
2022-08-31T11:58:38.784Z,10.70
2022-08-31T12:01:34.944Z,10.10
2022-08-31T12:04:04.330Z,8.80
2022-08-31T12:07:08.700Z,8.13
2022-08-31T12:10:09.016Z,7.50
2022-08-31T12:13:19.311Z,7.00
2022-08-31T12:16:04.120Z,6.80
2022-08-31T12:18:48.760Z,7.00
2022-08-31T12:21:44.140Z,6.43
2022-08-31T12:24:27.072Z,6.77
2022-08-31T12:27:17.333Z,7.07
2022-08-31T12:29:45.471Z,7.10
2022-08-31T12:32:29.493Z,6.47
2022-08-31T12:35:06.126Z,5.70
2022-08-31T12:37:36.037Z,7.30
2022-08-31T12:40:17.433Z,6.97
2022-08-31T12:43:02.287Z,6.80
2022-08-31T12:46:07.177Z,6.80
2022-08-31T12:48:46.021Z,5.80
2022-08-31T12:51:27.186Z,5.97
2022-08-31T12:54:20.492Z,6.30
2022-08-31T12:56:57.140Z,7.07
2022-08-31T12:59:57.476Z,6.93
2022-08-31T13:02:25.552Z,6.90
2022-08-31T13:04:53.630Z,7.60
2022-08-31T13:07:29.789Z,7.43
2022-08-31T13:10:07.353Z,7.83
2022-08-31T13:12:35.759Z,7.23
2022-08-31T13:15:04.128Z,7.43
2022-08-31T13:17:37.930Z,7.93
2022-08-31T13:20:08.815Z,8.50
2022-08-31T13:22:41.612Z,8.40
2022-08-31T13:25:16.699Z,8.97
2022-08-31T13:27:49.504Z,8.87
2022-08-31T13:30:20.825Z,9.80
2022-08-31T13:32:51.124Z,8.70
2022-08-31T13:35:21.202Z,8.93
2022-08-31T13:38:03.788Z,9.10
2022-08-31T13:40:35.474Z,8.87
2022-08-31T13:43:04.258Z,8.87
2022-08-31T13:45:35.141Z,10.00
2022-08-31T13:48:10.285Z,9.23
2022-08-31T13:50:52.272Z,9.20
2022-08-31T13:53:39.483Z,9.53
2022-08-31T13:56:40.636Z,7.90
2022-08-31T13:59:20.120Z,7.80
2022-08-31T14:01:49.110Z,8.63
2022-08-31T14:04:43.266Z,10.80
2022-08-31T14:07:21.262Z,9.93
2022-08-31T14:09:54.873Z,9.60
2022-08-31T14:12:34.587Z,9.60
2022-08-31T14:15:09.206Z,9.23
2022-08-31T14:17:41.239Z,9.70
2022-08-31T14:20:33.789Z,10.57
2022-08-31T14:23:31.007Z,9.83
2022-08-31T14:26:02.917Z,10.10
2022-08-31T14:28:44.138Z,12.10
2022-08-31T14:31:22.849Z,11.50
2022-08-31T14:33:55.988Z,10.83
2022-08-31T14:36:26.074Z,11.00
2022-08-31T14:38:54.179Z,12.20
2022-08-31T14:41:30.238Z,10.20
2022-08-31T14:44:06.837Z,11.27
2022-08-31T14:46:35.630Z,10.33
2022-08-31T14:49:03.554Z,12.10
2022-08-31T14:51:31.931Z,10.33
2022-08-31T14:54:00.210Z,10.60
2022-08-31T14:56:33.057Z,11.80
2022-08-31T14:59:04.340Z,10.90
2022-08-31T15:01:35.558Z,10.83
2022-08-31T15:04:04.831Z,10.70
2022-08-31T15:06:33.440Z,10.97
2022-08-31T15:09:04.983Z,12.53
2022-08-31T15:11:36.964Z,11.03
2022-08-31T15:14:07.520Z,12.30
2022-08-31T15:16:35.550Z,11.70
2022-08-31T15:19:13.556Z,12.17
2022-08-31T15:21:52.881Z,11.97
2022-08-31T15:24:28.477Z,12.00
2022-08-31T15:26:59.870Z,12.20
2022-08-31T15:29:30.514Z,12.17
2022-08-31T15:31:59.781Z,12.20
2022-08-31T15:34:31.187Z,11.77
2022-08-31T15:37:02.308Z,12.20
2022-08-31T15:39:32.984Z,12.47
2022-08-31T15:42:03.327Z,12.03
2022-08-31T15:44:33.424Z,13.00
2022-08-31T15:47:20.696Z,12.80
2022-08-31T15:49:48.596Z,12.77
2022-08-31T15:52:16.535Z,13.97
2022-08-31T15:54:44.393Z,13.27
2022-08-31T15:57:15.912Z,14.30
2022-08-31T15:59:44.255Z,12.13
2022-08-31T16:02:14.554Z,12.50
2022-08-31T16:04:43.364Z,11.97
2022-08-31T16:07:13.630Z,12.73
2022-08-31T16:09:44.736Z,12.97
2022-08-31T16:12:14.884Z,13.50
2022-08-31T16:14:45.029Z,12.90
2022-08-31T16:17:19.025Z,12.37
2022-08-31T16:19:47.222Z,12.03
2022-08-31T16:22:15.526Z,12.57
2022-08-31T16:24:44.665Z,12.30
2022-08-31T16:27:16.619Z,13.30
2022-08-31T16:29:45.647Z,13.63
2022-08-31T16:32:14.344Z,12.90
2022-08-31T16:34:42.637Z,10.97
2022-08-31T16:37:10.854Z,10.43
2022-08-31T16:39:40.935Z,9.80
2022-08-31T16:42:11.191Z,8.20
2022-08-31T16:44:41.099Z,7.50
2022-08-31T16:47:10.385Z,7.97
2022-08-31T16:49:40.415Z,7.27
2022-08-31T16:52:11.141Z,8.13
2022-08-31T16:54:42.130Z,7.60
2022-08-31T16:57:10.354Z,7.87
2022-08-31T16:59:40.989Z,8.40
2022-08-31T17:02:11.602Z,8.10
2022-08-31T17:04:55.764Z,7.87
2022-08-31T17:07:25.542Z,7.70
2022-08-31T17:09:57.145Z,7.23
2022-08-31T17:12:27.179Z,7.40
2022-08-31T17:14:58.101Z,7.40
2022-08-31T17:17:27.797Z,7.03
2022-08-31T17:19:56.532Z,7.53
2022-08-31T17:22:31.702Z,7.30
2022-08-31T17:25:02.616Z,7.60
2022-08-31T17:27:32.174Z,7.70
2022-08-31T17:30:05.107Z,7.80
2022-08-31T17:32:34.813Z,7.00
2022-08-31T17:35:03.726Z,6.73
2022-08-31T17:37:37.030Z,7.00
2022-08-31T17:40:08.024Z,7.47
2022-08-31T17:42:37.180Z,7.67
2022-08-31T17:45:08.463Z,7.57
2022-08-31T17:47:36.346Z,7.33
2022-08-31T17:50:04.539Z,7.80
2022-08-31T17:52:32.554Z,8.07
2022-08-31T17:55:01.728Z,7.90
2022-08-31T17:57:29.686Z,7.90
2022-08-31T17:59:57.678Z,8.03
2022-08-31T18:02:32.526Z,8.17
2022-08-31T18:05:01.244Z,8.10
2022-08-31T18:07:29.582Z,8.20
2022-08-31T18:09:57.912Z,8.00
2022-08-31T18:12:27.359Z,7.83
2022-08-31T18:14:57.965Z,7.87
2022-08-31T18:17:27.466Z,8.90
2022-08-31T18:19:55.662Z,8.10
2022-08-31T18:22:24.181Z,7.90
2022-08-31T18:24:52.132Z,7.73
2022-08-31T18:27:20.746Z,9.10
2022-08-31T18:29:48.688Z,8.73
2022-08-31T18:32:17.166Z,8.77
2022-08-31T18:34:47.307Z,8.30
2022-08-31T18:37:20.943Z,8.40
2022-08-31T18:40:08.270Z,8.27
2022-08-31T18:42:56.943Z,8.93
2022-08-31T18:45:25.504Z,9.03
2022-08-31T18:50:48.019Z,8.23
2022-08-31T18:53:27.513Z,8.40
2022-08-31T18:55:58.363Z,8.40
2022-08-31T18:58:26.366Z,10.17
2022-08-31T19:00:57.421Z,9.50
2022-08-31T19:03:27.241Z,9.53
2022-08-31T19:05:57.003Z,9.27
2022-08-31T19:08:26.162Z,9.70
2022-08-31T19:10:56.139Z,9.93
2022-08-31T19:13:26.178Z,9.53
2022-08-31T19:15:56.908Z,10.67
2022-08-31T19:18:28.552Z,10.47
2022-08-31T19:20:57.798Z,11.00
2022-08-31T19:23:26.250Z,10.40
2022-08-31T19:25:54.673Z,11.20
2022-08-31T19:28:22.555Z,10.17
2022-08-31T19:30:50.461Z,11.70
2022-08-31T19:33:18.807Z,12.13
2022-08-31T19:35:46.754Z,11.57
2022-08-31T19:38:16.115Z,11.03
2022-08-31T19:40:44.219Z,11.70
2022-08-31T19:46:15.663Z,12.50
2022-08-31T19:48:44.972Z,11.70
2022-08-31T19:51:15.193Z,11.47
2022-08-31T19:53:45.413Z,12.70
2022-08-31T19:56:17.532Z,11.70
2022-08-31T19:58:48.328Z,11.90
2022-08-31T20:01:18.215Z,11.80
2022-08-31T20:03:47.790Z,13.60
2022-08-31T20:06:17.273Z,12.70
2022-08-31T20:08:47.398Z,12.90
2022-08-31T20:11:21.724Z,13.30
2022-08-31T20:13:50.164Z,12.33
2022-08-31T20:16:19.202Z,12.90
2022-08-31T20:18:48.523Z,12.97
2022-08-31T20:21:19.214Z,12.93
2022-08-31T20:23:50.088Z,12.50
2022-08-31T20:26:21.961Z,12.90
2022-08-31T20:28:58.712Z,12.10
2022-08-31T20:31:27.700Z,13.30
2022-08-31T20:33:57.824Z,11.70
2022-08-31T20:36:27.986Z,13.37
2022-08-31T20:39:01.053Z,12.87
2022-08-31T20:41:32.216Z,12.03
2022-08-31T20:44:10.132Z,14.37
2022-08-31T20:47:00.203Z,13.00
2022-08-31T20:49:29.964Z,13.13
2022-08-31T20:52:02.083Z,13.27
2022-08-31T20:54:32.674Z,12.60
2022-08-31T20:57:02.115Z,12.87
2022-08-31T20:59:31.282Z,11.80
2022-08-31T21:02:03.986Z,12.33
2022-08-31T21:04:33.123Z,12.93
2022-08-31T21:07:02.302Z,12.80
2022-08-31T21:09:31.750Z,12.33
2022-08-31T21:12:01.159Z,12.67
2022-08-31T21:14:30.788Z,12.70
2022-08-31T21:16:59.148Z,12.37
2022-08-31T21:19:27.175Z,12.43
2022-08-31T21:22:00.825Z,13.57
2022-08-31T21:24:28.765Z,13.70
2022-08-31T21:26:59.148Z,13.30
2022-08-31T21:29:29.188Z,12.63
2022-08-31T21:32:03.411Z,13.43
2022-08-31T21:34:32.290Z,12.43
2022-08-31T21:37:00.171Z,12.20
2022-08-31T21:39:28.107Z,13.13
2022-08-31T21:41:57.367Z,14.50
2022-08-31T21:44:25.375Z,12.77
2022-08-31T21:46:53.716Z,13.27
2022-08-31T21:49:21.759Z,13.90
2022-08-31T21:51:52.195Z,13.30
2022-08-31T21:54:22.224Z,13.60
2022-08-31T21:56:51.689Z,12.70
2022-08-31T21:59:24.260Z,14.13
2022-08-31T22:01:55.354Z,13.60
2022-08-31T22:04:23.784Z,12.40
2022-08-31T22:06:51.999Z,13.30
2022-08-31T22:09:22.954Z,13.60
2022-08-31T22:11:54.806Z,12.70
2022-08-31T22:14:26.468Z,14.23
2022-08-31T22:16:57.005Z,12.80
2022-08-31T22:19:27.090Z,12.73
2022-08-31T22:21:58.169Z,13.60
2022-08-31T22:24:29.537Z,13.77
2022-08-31T22:26:59.570Z,13.40
2022-08-31T22:29:31.317Z,13.07
2022-08-31T22:32:01.421Z,13.17
2022-08-31T22:34:29.596Z,13.37
2022-08-31T22:36:57.920Z,13.83
2022-08-31T22:39:28.150Z,14.23
2022-08-31T22:41:57.134Z,13.57
2022-08-31T22:44:27.788Z,12.97
2022-08-31T22:46:57.253Z,13.80
2022-08-31T22:49:25.787Z,14.30
2022-08-31T22:51:54.448Z,12.87
2022-08-31T22:54:23.473Z,14.00
2022-08-31T22:56:53.473Z,14.20
2022-08-31T22:59:27.008Z,12.73
2022-08-31T23:02:03.156Z,13.07
2022-08-31T23:04:34.195Z,13.43
2022-08-31T23:07:04.189Z,13.60
2022-08-31T23:09:33.861Z,14.07
2022-08-31T23:12:04.780Z,13.93
2022-08-31T23:14:33.501Z,13.00
2022-08-31T23:17:08.171Z,13.60
2022-08-31T23:19:39.005Z,12.90
2022-08-31T23:22:09.433Z,13.90
2022-08-31T23:24:40.632Z,12.90
2022-08-31T23:27:10.564Z,13.10
2022-08-31T23:29:41.002Z,13.83
2022-08-31T23:32:12.011Z,14.53
2022-08-31T23:34:40.040Z,14.60
2022-08-31T23:37:10.163Z,13.23
2022-08-31T23:39:39.692Z,13.07
2022-08-31T23:42:12.082Z,13.47
2022-08-31T23:44:41.759Z,13.90
2022-08-31T23:47:13.484Z,12.30
2022-08-31T23:49:42.291Z,12.43
2022-08-31T23:52:11.767Z,12.80
2022-08-31T23:54:39.846Z,12.93
2022-08-31T23:57:22.369Z,13.07
